Time;durP1;ratioP1;P1;durP2;ratioP2;P2;SDS_P1;SDS_P2;PMS_P1;PMS_P2;Temp;Humidity;BMP_temperature;BMP_pressure;BME280_temperature;BME280_humidity;BME280_pressure;Samples;Min_cycle;Max_cycle;Signal;HPM_P1;HPM_P2
2022/12/03 00:00:33;;;;;;;29.38;13.82;;;2.10;99.90;;;;;;4993195;28;20196;-79
2022/12/03 00:02:58;;;;;;;28.97;14.30;;;2.00;99.90;;;;;;4992551;28;20306;-79
2022/12/03 00:05:24;;;;;;;31.30;14.10;;;2.00;99.90;;;;;;5010516;28;20187;-80
2022/12/03 00:07:49;;;;;;;33.47;14.80;;;1.90;99.90;;;;;;5010309;28;20215;-79
2022/12/03 00:10:15;;;;;;;30.10;14.77;;;1.90;99.90;;;;;;4992533;28;20708;-79
2022/12/03 00:12:40;;;;;;;32.37;14.83;;;1.90;99.90;;;;;;5008797;28;20210;-78
2022/12/03 00:15:08;;;;;;;38.43;15.33;;;1.90;99.90;;;;;;4992985;28;20213;-80
2022/12/03 00:17:33;;;;;;;32.03;14.75;;;1.90;99.90;;;;;;5010187;28;20193;-78
2022/12/03 00:19:59;;;;;;;31.70;14.27;;;1.90;99.90;;;;;;4993792;28;20196;-79
2022/12/03 00:22:25;;;;;;;31.77;13.13;;;1.90;99.90;;;;;;5009492;28;20669;-77
2022/12/03 00:24:50;;;;;;;25.70;13.00;;;1.90;99.90;;;;;;5011362;28;20194;-78
2022/12/03 00:27:16;;;;;;;35.53;14.10;;;2.00;99.90;;;;;;5009584;28;20226;-77
2022/12/03 00:29:41;;;;;;;30.63;13.63;;;2.00;99.90;;;;;;4992905;28;20293;-77
2022/12/03 00:32:07;;;;;;;28.50;12.50;;;1.90;99.90;;;;;;5008817;28;20739;-77
2022/12/03 00:34:32;;;;;;;28.13;13.10;;;1.90;99.90;;;;;;5010308;28;20193;-77
2022/12/03 00:36:58;;;;;;;24.97;13.30;;;1.90;99.90;;;;;;5009887;28;20185;-78
2022/12/03 00:39:24;;;;;;;29.87;14.17;;;1.90;99.90;;;;;;5010097;28;20186;-77
2022/12/03 00:41:49;;;;;;;29.30;13.10;;;1.80;99.90;;;;;;5009782;28;20279;-77
2022/12/03 00:44:15;;;;;;;33.53;14.50;;;1.70;99.90;;;;;;5008741;28;20190;-77
2022/12/03 00:46:40;;;;;;;33.20;13.10;;;1.70;99.90;;;;;;5008188;28;20329;-77
2022/12/03 00:49:06;;;;;;;39.70;14.17;;;1.70;99.90;;;;;;5008444;28;20560;-77
2022/12/03 00:51:32;;;;;;;36.00;14.00;;;1.60;99.90;;;;;;5008221;28;20236;-77
2022/12/03 00:53:57;;;;;;;37.33;15.10;;;1.60;99.90;;;;;;5008354;28;20187;-78
2022/12/03 00:56:23;;;;;;;30.80;14.10;;;1.50;99.90;;;;;;5009667;28;20177;-78
2022/12/03 00:58:49;;;;;;;34.70;15.60;;;1.60;99.90;;;;;;5009773;28;20202;-77
2022/12/03 01:01:15;;;;;;;36.97;16.00;;;1.50;99.90;;;;;;5009507;28;20213;-77
2022/12/03 01:03:40;;;;;;;31.60;14.43;;;1.40;99.90;;;;;;5008134;28;20190;-80
2022/12/03 01:06:07;;;;;;;35.53;15.60;;;1.40;99.90;;;;;;5007913;28;20240;-80
2022/12/03 01:08:32;;;;;;;36.60;16.13;;;1.40;99.90;;;;;;5008062;28;20193;-80
2022/12/03 01:10:58;;;;;;;37.83;16.93;;;1.50;99.90;;;;;;5009556;28;20286;-81
2022/12/03 01:13:23;;;;;;;32.07;14.60;;;1.50;99.90;;;;;;5008222;28;20189;-79
2022/12/03 01:15:49;;;;;;;31.80;13.63;;;1.50;99.90;;;;;;5009525;28;20771;-80
2022/12/03 01:18:15;;;;;;;30.77;15.10;;;1.50;99.90;;;;;;4991736;28;20220;-79
2022/12/03 01:20:40;;;;;;;37.03;13.60;;;1.60;99.90;;;;;;4975499;28;20193;-80
2022/12/03 01:23:06;;;;;;;37.23;14.43;;;1.50;99.90;;;;;;4991439;28;20213;-80
2022/12/03 01:25:32;;;;;;;37.73;15.60;;;1.50;99.90;;;;;;4975645;28;20186;-80
2022/12/03 01:27:57;;;;;;;30.77;14.10;;;1.50;99.90;;;;;;5008004;28;20320;-77
2022/12/03 01:30:23;;;;;;;35.53;15.30;;;1.40;99.90;;;;;;5008011;28;20191;-78
2022/12/03 01:32:48;;;;;;;33.07;15.17;;;1.50;99.90;;;;;;5007790;28;20226;-78
2022/12/03 01:35:14;;;;;;;31.70;14.37;;;1.50;99.90;;;;;;5007924;28;20183;-78
2022/12/03 01:37:39;;;;;;;33.90;14.70;;;1.60;99.90;;;;;;5007601;28;20183;-77
2022/12/03 01:40:07;;;;;;;36.47;14.40;;;1.60;99.90;;;;;;5011706;28;20186;-77
2022/12/03 01:42:37;;;;;;;32.30;13.75;;;1.50;99.90;;;;;;5013450;28;20207;-78
2022/12/03 01:45:04;;;;;;;31.80;14.55;;;1.60;99.90;;;;;;5012086;28;20190;-78
2022/12/03 01:47:35;;;;;;;34.95;14.88;;;1.50;99.90;;;;;;5013089;28;20325;-78
2022/12/03 01:50:04;;;;;;;37.45;15.93;;;1.50;99.90;;;;;;5011828;28;20181;-77
2022/12/03 01:52:33;;;;;;;34.72;14.63;;;1.60;99.90;;;;;;5013092;28;20205;-77
2022/12/03 01:55:03;;;;;;;38.15;15.70;;;1.60;99.90;;;;;;5013029;28;20973;-78
2022/12/03 01:57:40;;;;;;;39.05;16.77;;;1.70;99.90;;;;;;5012994;28;20184;-78
2022/12/03 02:00:06;;;;;;;31.35;14.65;;;1.70;99.90;;;;;;5012920;28;20190;-77
2022/12/03 02:02:32;;;;;;;32.88;15.45;;;1.70;99.90;;;;;;5011339;28;20271;-78
2022/12/03 02:04:59;;;;;;;36.17;15.70;;;1.70;99.90;;;;;;5011203;28;20972;-78
2022/12/03 02:07:30;;;;;;;34.70;16.45;;;1.80;99.90;;;;;;5011390;28;20298;-77
2022/12/03 02:09:58;;;;;;;32.45;14.70;;;1.80;99.90;;;;;;5013086;28;20188;-78
2022/12/03 02:12:29;;;;;;;32.53;14.73;;;1.80;99.90;;;;;;4995502;28;20688;-80
2022/12/03 02:14:55;;;;;;;35.13;15.48;;;1.80;99.90;;;;;;5013328;28;20660;-80
2022/12/03 02:17:21;;;;;;;30.27;14.70;;;1.80;99.90;;;;;;4995725;28;20199;-80
2022/12/03 02:19:47;;;;;;;34.67;14.70;;;1.90;99.90;;;;;;5013250;28;20787;-81
2022/12/03 02:22:18;;;;;;;30.27;15.30;;;2.00;99.90;;;;;;4980004;28;20226;-80
2022/12/03 02:24:51;;;;;;;26.27;12.90;;;2.00;99.90;;;;;;5011346;28;20193;-80
2022/12/03 02:27:17;;;;;;;29.30;14.20;;;2.00;99.90;;;;;;5011059;28;20288;-79
2022/12/03 02:29:42;;;;;;;30.53;14.77;;;2.10;99.90;;;;;;4994895;28;20227;-78
2022/12/03 02:32:08;;;;;;;31.10;15.20;;;2.40;99.90;;;;;;5012128;28;20445;-78
2022/12/03 02:34:36;;;;;;;28.20;15.03;;;2.30;99.90;;;;;;4994509;28;20197;-78
2022/12/03 02:37:04;;;;;;;27.25;13.82;;;2.40;99.90;;;;;;5012128;28;20323;-78
2022/12/03 02:39:31;;;;;;;27.90;14.82;;;2.40;99.90;;;;;;5010607;28;20729;-79
2022/12/03 02:44:41;;;;;;;23.00;12.98;;;2.40;99.90;;;;;;5011139;28;20206;-77
2022/12/03 02:47:07;;;;;;;27.40;13.90;;;2.40;99.90;;;;;;5010580;28;20220;-80
2022/12/03 02:49:32;;;;;;;25.57;12.80;;;2.40;99.90;;;;;;5010869;28;20208;-79
2022/12/03 02:51:58;;;;;;;23.97;12.97;;;2.50;99.90;;;;;;5009935;28;20285;-79
2022/12/03 02:54:24;;;;;;;29.37;15.57;;;2.50;99.90;;;;;;5011691;28;20193;-79
2022/12/03 02:56:49;;;;;;;21.50;13.03;;;2.50;99.90;;;;;;4994061;28;20205;-78
2022/12/03 02:59:15;;;;;;;21.30;12.87;;;2.50;99.90;;;;;;5012067;28;20425;-77
2022/12/03 03:01:41;;;;;;;26.83;13.40;;;2.60;99.90;;;;;;5011751;28;20217;-78
2022/12/03 03:04:07;;;;;;;23.53;13.67;;;2.60;99.90;;;;;;4994007;28;20436;-79
2022/12/03 03:06:33;;;;;;;22.43;13.13;;;2.60;99.90;;;;;;5011501;28;20215;-78
2022/12/03 03:08:59;;;;;;;28.80;14.65;;;2.60;99.90;;;;;;4994153;28;20582;-79
2022/12/03 03:11:25;;;;;;;24.10;13.63;;;2.60;99.90;;;;;;4993531;28;20206;-80
2022/12/03 03:13:51;;;;;;;30.75;16.63;;;2.60;99.90;;;;;;4993461;28;20914;-80
2022/12/03 03:16:16;;;;;;;30.80;16.10;;;2.60;99.90;;;;;;5009858;28;20190;-80
2022/12/03 03:18:42;;;;;;;26.03;14.47;;;2.60;99.90;;;;;;5009614;28;20197;-79
2022/12/03 03:21:08;;;;;;;30.40;15.33;;;2.60;99.90;;;;;;5011144;28;20186;-79
2022/12/03 03:23:33;;;;;;;28.63;14.17;;;2.60;99.90;;;;;;4993341;28;20612;-81
2022/12/03 03:26:04;;;;;;;28.03;15.30;;;2.70;99.90;;;;;;5011052;28;20188;-79
2022/12/03 03:28:30;;;;;;;23.70;13.00;;;2.70;99.90;;;;;;5009529;28;20261;-80
2022/12/03 03:31:14;;;;;;;32.95;14.40;;;2.70;99.90;;;;;;4977526;28;20842;-80
2022/12/03 03:33:42;;;;;;;27.90;15.02;;;2.70;99.90;;;;;;5010745;28;20173;-79
2022/12/03 03:36:08;;;;;;;22.92;13.30;;;2.70;99.90;;;;;;4993354;28;20196;-79
2022/12/03 03:38:35;;;;;;;23.92;14.45;;;2.70;99.90;;;;;;5010919;28;20206;-80
2022/12/03 03:41:03;;;;;;;28.75;14.75;;;2.70;99.90;;;;;;5010633;28;20188;-79
2022/12/03 03:43:33;;;;;;;28.75;14.77;;;2.70;99.90;;;;;;4993214;28;20616;-77
2022/12/03 03:46:00;;;;;;;28.17;14.30;;;2.70;99.90;;;;;;4993651;28;20202;-77
2022/12/03 03:48:26;;;;;;;26.50;13.68;;;2.80;99.90;;;;;;5009033;28;20219;-77
2022/12/03 03:50:52;;;;;;;32.47;16.20;;;2.80;99.90;;;;;;5010209;28;20189;-77
2022/12/03 03:53:20;;;;;;;24.13;13.90;;;2.80;99.90;;;;;;5010453;28;20187;-77
2022/12/03 03:55:46;;;;;;;27.30;15.30;;;2.90;99.90;;;;;;5010507;28;20743;-77
2022/12/03 03:58:11;;;;;;;29.67;14.37;;;2.70;99.90;;;;;;5011747;28;20500;-78
2022/12/03 04:00:38;;;;;;;26.10;14.20;;;2.70;99.90;;;;;;4995271;28;20439;-78
2022/12/03 04:03:04;;;;;;;29.25;15.20;;;2.70;99.90;;;;;;5014466;28;20207;-78
2022/12/03 04:05:30;;;;;;;31.63;14.85;;;2.60;99.90;;;;;;5014802;28;20714;-78
2022/12/03 04:07:57;;;;;;;27.80;13.30;;;2.70;99.90;;;;;;5013581;28;20207;-78
2022/12/03 04:13:07;;;;;;;26.08;14.35;;;2.70;99.90;;;;;;5014475;28;20309;-80
2022/12/03 04:15:32;;;;;;;25.43;14.00;;;2.70;99.90;;;;;;5013496;28;20742;-80
2022/12/03 04:20:42;;;;;;;24.90;13.10;;;2.70;99.90;;;;;;5008893;28;20609;-80
2022/12/03 04:23:08;;;;;;;25.90;14.77;;;2.80;99.90;;;;;;4995367;28;20211;-79
2022/12/03 04:35:41;;;;;;;28.17;13.52;;;2.80;99.90;;;;;;5009085;28;20206;-78
2022/12/03 04:36:37;;;;;;;28.90;15.32;;;2.70;99.90;;;;;;4991098;28;20611;-80
2022/12/03 04:39:03;;;;;;;26.70;13.70;;;2.70;99.90;;;;;;5011287;28;20191;-80
2022/12/03 04:41:28;;;;;;;26.58;13.70;;;2.50;99.90;;;;;;5009821;28;20215;-78
2022/12/03 04:46:38;;;;;;;26.73;13.82;;;2.70;99.90;;;;;;5009137;28;20718;-77
2022/12/03 04:49:04;;;;;;;31.17;15.47;;;2.70;99.90;;;;;;5007999;28;20243;-77
2022/12/03 04:51:29;;;;;;;27.37;13.10;;;2.70;99.90;;;;;;5009296;28;20200;-77
2022/12/03 04:53:55;;;;;;;24.47;12.90;;;2.60;99.90;;;;;;4991860;28;20669;-77
2022/12/03 04:56:20;;;;;;;27.97;14.60;;;2.60;99.90;;;;;;5008955;28;20218;-78
2022/12/03 04:58:46;;;;;;;26.20;13.53;;;2.70;99.90;;;;;;5008782;28;20279;-78
2022/12/03 05:01:12;;;;;;;23.03;13.40;;;2.70;99.90;;;;;;5009857;28;20269;-77
2022/12/03 05:03:37;;;;;;;25.03;14.53;;;2.70;99.90;;;;;;5007983;28;20189;-77
2022/12/03 05:06:03;;;;;;;24.33;13.07;;;2.80;99.90;;;;;;5009108;28;20190;-77
2022/12/03 05:08:29;;;;;;;24.70;13.20;;;2.80;99.90;;;;;;5009334;28;20724;-78
2022/12/03 05:10:54;;;;;;;25.50;14.50;;;2.80;99.90;;;;;;4992257;28;20539;-77
2022/12/03 05:13:20;;;;;;;26.20;13.97;;;2.80;99.90;;;;;;5007907;28;20540;-80
2022/12/03 05:15:45;;;;;;;30.10;15.97;;;2.80;99.90;;;;;;5008097;28;20187;-81
2022/12/03 05:18:11;;;;;;;29.60;15.43;;;2.80;99.90;;;;;;4991782;28;20583;-80
2022/12/03 05:20:42;;;;;;;27.60;14.73;;;2.80;99.90;;;;;;4992263;28;20187;-81
2022/12/03 05:23:10;;;;;;;30.48;15.23;;;2.70;99.90;;;;;;4993228;28;20207;-79
2022/12/03 05:25:36;;;;;;;27.63;15.50;;;2.70;99.90;;;;;;5009939;28;20675;-78
2022/12/03 05:28:02;;;;;;;26.30;14.03;;;2.70;99.90;;;;;;5008633;28;20217;-79
2022/12/03 05:30:28;;;;;;;26.60;15.35;;;2.80;99.90;;;;;;5008734;28;20421;-76
2022/12/03 05:32:54;;;;;;;38.27;17.27;;;2.90;99.90;;;;;;5008622;28;20263;-77
2022/12/03 05:35:19;;;;;;;49.63;23.80;;;2.90;99.90;;;;;;5008527;28;20192;-77
2022/12/03 05:37:45;;;;;;;70.93;31.17;;;2.90;99.90;;;;;;5007420;28;20242;-76
2022/12/03 05:40:11;;;;;;;39.60;18.97;;;2.90;99.90;;;;;;5008433;28;20186;-76
2022/12/03 05:42:52;;;;;;;36.83;18.48;;;2.90;99.90;;;;;;5007535;28;20560;-78
2022/12/03 05:45:22;;;;;;;97.05;34.67;;;3.00;99.90;;;;;;5007517;28;20197;-77
2022/12/03 05:47:47;;;;;;;49.03;21.40;;;3.00;99.90;;;;;;5008527;28;20681;-78
2022/12/03 05:50:13;;;;;;;111.43;33.73;;;3.00;99.90;;;;;;4991124;28;20434;-78
2022/12/03 05:52:39;;;;;;;53.80;21.50;;;2.90;99.90;;;;;;5007245;28;20199;-77
2022/12/03 05:55:05;;;;;;;33.90;17.20;;;3.00;99.90;;;;;;5008452;28;20825;-77
2022/12/03 05:57:31;;;;;;;32.73;15.70;;;3.00;99.90;;;;;;5008387;28;20317;-77
2022/12/03 05:59:57;;;;;;;33.93;16.90;;;3.10;99.90;;;;;;5008430;28;20991;-78
2022/12/03 06:02:22;;;;;;;31.30;15.73;;;3.00;99.90;;;;;;4990923;28;20558;-82
2022/12/03 06:04:48;;;;;;;30.57;16.93;;;3.10;99.90;;;;;;4991245;28;20195;-81
2022/12/03 06:07:14;;;;;;;58.77;25.37;;;3.00;99.90;;;;;;4991115;28;20226;-83
2022/12/03 06:09:39;;;;;;;98.60;34.70;;;3.00;99.90;;;;;;4991522;28;20187;-83
2022/12/03 06:12:05;;;;;;;47.93;20.77;;;2.90;99.90;;;;;;4991192;28;20203;-82
2022/12/03 06:14:33;;;;;;;36.67;19.45;;;3.00;99.90;;;;;;4991158;28;20191;-83
2022/12/03 06:16:59;;;;;;;34.20;19.30;;;3.00;99.90;;;;;;5007410;28;20193;-84
2022/12/03 06:19:24;;;;;;;51.30;23.93;;;3.00;99.90;;;;;;4990870;28;20821;-84
2022/12/03 06:21:50;;;;;;;35.47;19.73;;;3.00;99.90;;;;;;5008465;28;20234;-83
2022/12/03 06:24:16;;;;;;;34.40;17.70;;;2.90;99.90;;;;;;5009592;28;20196;-84
2022/12/03 06:26:41;;;;;;;29.73;15.93;;;2.90;99.90;;;;;;4978287;28;20218;-83
2022/12/03 06:29:07;;;;;;;27.50;16.77;;;3.00;99.90;;;;;;5011018;28;20202;-83
2022/12/03 06:31:32;;;;;;;28.10;15.73;;;3.00;99.90;;;;;;5010540;28;20216;-83
2022/12/03 06:33:58;;;;;;;30.63;15.17;;;3.00;99.90;;;;;;4978493;28;20195;-83
2022/12/03 06:36:26;;;;;;;28.60;15.70;;;3.00;99.90;;;;;;4978530;28;20239;-84
2022/12/03 06:38:52;;;;;;;31.17;16.60;;;3.10;99.90;;;;;;4996512;28;20186;-83
2022/12/03 06:41:18;;;;;;;28.92;15.80;;;3.10;99.90;;;;;;5011322;28;20583;-83
2022/12/03 06:43:43;;;;;;;24.50;14.40;;;3.10;99.90;;;;;;4994813;28;20272;-83
2022/12/03 06:46:09;;;;;;;28.40;15.30;;;3.00;99.90;;;;;;4978578;28;20194;-83
2022/12/03 06:48:35;;;;;;;31.17;16.33;;;3.10;99.90;;;;;;5011268;28;20216;-83
2022/12/03 06:51:01;;;;;;;33.23;16.50;;;3.10;99.90;;;;;;5012619;28;20668;-84
2022/12/03 06:53:26;;;;;;;25.67;13.73;;;3.10;99.90;;;;;;4994631;28;20636;-83
2022/12/03 06:55:52;;;;;;;29.63;14.93;;;3.10;99.90;;;;;;4994413;28;20241;-83
2022/12/03 06:58:17;;;;;;;31.73;17.27;;;3.20;99.90;;;;;;4978069;28;20192;-83
2022/12/03 07:00:43;;;;;;;31.30;15.60;;;3.20;99.90;;;;;;4994505;28;20194;-83
2022/12/03 07:03:08;;;;;;;26.90;14.80;;;3.20;99.90;;;;;;4978466;28;20208;-83
2022/12/03 07:05:34;;;;;;;33.43;17.27;;;3.20;99.90;;;;;;5011080;28;20265;-83
2022/12/03 07:08:00;;;;;;;30.97;17.03;;;3.20;99.90;;;;;;4994775;28;20590;-83
2022/12/03 07:10:25;;;;;;;29.90;14.17;;;3.20;99.90;;;;;;4978353;28;20233;-83
2022/12/03 07:12:51;;;;;;;28.77;14.03;;;3.20;99.90;;;;;;4994540;28;20318;-83
2022/12/03 07:15:18;;;;;;;27.20;15.70;;;3.20;99.90;;;;;;4998935;28;20197;-85
2022/12/03 07:17:43;;;;;;;27.00;13.98;;;3.20;99.90;;;;;;4981672;28;20215;-83
2022/12/03 07:20:09;;;;;;;26.53;14.53;;;3.20;99.90;;;;;;4994014;28;20200;-83
2022/12/03 07:22:35;;;;;;;25.33;13.17;;;3.20;99.90;;;;;;4993574;28;20210;-83
2022/12/03 07:25:00;;;;;;;24.20;13.67;;;3.20;99.90;;;;;;4993923;28;20471;-83
2022/12/03 07:27:26;;;;;;;30.43;13.80;;;3.20;99.90;;;;;;5009904;28;20219;-83
2022/12/03 07:29:52;;;;;;;24.27;12.73;;;3.10;99.90;;;;;;4977557;28;20186;-83
2022/12/03 07:32:17;;;;;;;23.63;12.27;;;3.10;99.90;;;;;;4993759;28;20628;-83
2022/12/03 07:34:43;;;;;;;23.80;11.90;;;3.00;99.90;;;;;;4977424;28;20192;-83
2022/12/03 07:37:08;;;;;;;22.77;12.07;;;2.90;99.90;;;;;;4976323;28;20223;-83
2022/12/03 07:39:34;;;;;;;23.47;12.57;;;2.90;99.90;;;;;;4977201;28;20338;-83
2022/12/03 07:42:00;;;;;;;24.60;13.37;;;2.90;99.90;;;;;;5009666;28;20242;-83
2022/12/03 07:44:26;;;;;;;19.90;11.20;;;2.90;99.90;;;;;;4977364;28;20639;-83
2022/12/03 07:46:51;;;;;;;29.92;14.32;;;2.90;99.90;;;;;;4993209;28;20226;-82
2022/12/03 07:49:17;;;;;;;23.60;11.67;;;2.90;99.90;;;;;;4977217;28;20196;-83
2022/12/03 07:51:52;;;;;;;20.60;10.23;;;2.90;99.90;;;;;;4992976;28;20291;-83
2022/12/03 07:54:17;;;;;;;18.58;10.32;;;2.80;99.90;;;;;;5009514;28;20657;-82
2022/12/03 07:56:43;;;;;;;23.03;10.80;;;2.80;99.90;;;;;;4992934;28;20203;-82
2022/12/03 07:59:09;;;;;;;18.33;9.70;;;2.80;99.90;;;;;;4992925;28;20271;-83
2022/12/03 08:01:34;;;;;;;23.53;9.53;;;2.80;99.90;;;;;;4976622;28;20215;-82
2022/12/03 08:04:00;;;;;;;16.37;9.13;;;2.80;99.90;;;;;;4992828;28;20221;-82
2022/12/03 08:06:26;;;;;;;15.87;9.07;;;2.80;99.90;;;;;;5009120;28;20182;-82
2022/12/03 08:08:51;;;;;;;16.83;9.37;;;2.70;99.90;;;;;;5008784;28;20230;-83
2022/12/03 08:11:17;;;;;;;18.90;9.17;;;2.70;99.90;;;;;;4991928;28;20276;-82
2022/12/03 08:13:42;;;;;;;19.97;9.10;;;2.60;99.90;;;;;;4991902;28;20660;-82
2022/12/03 08:16:18;;;;;;;18.27;8.80;;;2.70;99.90;;;;;;4991867;28;20544;-82
2022/12/03 08:18:45;;;;;;;17.27;9.40;;;2.60;99.90;;;;;;4992886;28;20641;-82
2022/12/03 08:21:13;;;;;;;21.27;10.40;;;2.70;99.90;;;;;;5008154;28;20671;-82
2022/12/03 08:23:47;;;;;;;17.83;10.63;;;2.70;99.90;;;;;;4991994;28;20466;-83
2022/12/03 08:26:19;;;;;;;16.80;8.52;;;2.70;99.90;;;;;;4991943;28;20439;-81
2022/12/03 08:28:45;;;;;;;19.42;9.80;;;2.70;99.90;;;;;;5008289;28;20227;-82
2022/12/03 08:31:22;;;;;;;22.87;10.77;;;2.60;99.90;;;;;;4991586;28;20191;-82
2022/12/03 08:33:50;;;;;;;18.50;9.63;;;2.60;99.90;;;;;;5007991;28;20195;-83
2022/12/03 08:36:29;;;;;;;23.90;10.27;;;2.70;99.90;;;;;;5009151;28;20422;-81
2022/12/03 08:39:00;;;;;;;23.10;10.77;;;2.70;99.90;;;;;;5008111;28;20821;-81
2022/12/03 08:44:33;;;;;;;22.58;10.30;;;2.80;99.90;;;;;;5008312;28;20182;-82
2022/12/03 08:47:21;;;;;;;20.77;11.15;;;2.70;99.90;;;;;;5009150;28;20227;-84
2022/12/03 08:49:56;;;;;;;23.88;11.23;;;2.70;99.90;;;;;;5007787;28;20187;-82
2022/12/03 08:52:29;;;;;;;22.40;11.05;;;2.70;99.90;;;;;;5007764;28;20215;-82
2022/12/03 08:54:55;;;;;;;26.52;12.73;;;2.90;99.90;;;;;;5009144;28;20186;-82
2022/12/03 08:57:26;;;;;;;18.55;10.90;;;2.90;99.90;;;;;;5008261;28;20211;-82
2022/12/03 09:00:12;;;;;;;21.67;10.85;;;2.90;99.90;;;;;;5007797;28;20199;-82
2022/12/03 09:02:46;;;;;;;20.92;10.48;;;2.90;99.90;;;;;;5007806;28;20228;-82
2022/12/03 09:05:17;;;;;;;25.33;11.82;;;3.00;99.90;;;;;;5008410;28;20208;-82
2022/12/03 09:07:43;;;;;;;20.40;10.50;;;3.20;99.90;;;;;;4991623;28;20348;-82
2022/12/03 09:10:09;;;;;;;26.80;13.03;;;3.20;99.90;;;;;;5008653;28;20290;-82
2022/12/03 09:12:34;;;;;;;23.20;11.00;;;3.20;99.90;;;;;;4992550;28;20232;-82
2022/12/03 09:15:00;;;;;;;27.77;13.07;;;3.20;99.90;;;;;;4974817;28;20250;-83
2022/12/03 09:17:26;;;;;;;25.63;13.63;;;3.30;99.90;;;;;;4991303;28;20293;-83
2022/12/03 09:19:51;;;;;;;21.00;11.20;;;3.40;99.90;;;;;;4991206;28;20205;-82
2022/12/03 09:22:17;;;;;;;21.73;10.70;;;3.30;99.90;;;;;;4991242;28;20224;-83
2022/12/03 09:24:43;;;;;;;24.00;13.20;;;3.20;99.90;;;;;;5008599;28;20199;-83
2022/12/03 09:27:08;;;;;;;19.57;10.80;;;3.20;99.90;;;;;;5009078;28;20211;-82
2022/12/03 09:29:34;;;;;;;22.23;11.63;;;3.40;99.90;;;;;;4975069;28;20481;-82
2022/12/03 09:32:00;;;;;;;25.90;12.20;;;3.50;99.90;;;;;;5008684;28;20626;-82
2022/12/03 09:34:25;;;;;;;31.83;14.83;;;3.40;99.90;;;;;;5008424;28;20232;-83
2022/12/03 09:36:51;;;;;;;20.47;11.50;;;3.40;99.90;;;;;;5008591;28;20211;-82
2022/12/03 09:39:17;;;;;;;24.33;12.60;;;3.40;99.90;;;;;;4974857;28;20587;-81
2022/12/03 09:41:42;;;;;;;20.77;10.47;;;3.40;99.90;;;;;;4991315;28;20216;-82
2022/12/03 09:44:09;;;;;;;19.67;11.27;;;3.40;99.90;;;;;;4974788;28;20653;-83
2022/12/03 09:46:37;;;;;;;24.55;10.85;;;3.40;99.90;;;;;;5007734;28;20522;-80
2022/12/03 09:49:05;;;;;;;18.13;10.20;;;3.30;99.90;;;;;;4975509;28;20201;-82
2022/12/03 09:51:33;;;;;;;28.73;14.07;;;3.20;99.90;;;;;;4992440;28;20548;-82
2022/12/03 09:54:01;;;;;;;31.42;14.40;;;3.20;99.90;;;;;;5010123;28;20210;-82
2022/12/03 09:56:27;;;;;;;17.83;9.35;;;3.20;99.90;;;;;;5008428;28;20265;-82
2022/12/03 09:58:53;;;;;;;17.17;8.88;;;3.20;99.90;;;;;;4992868;28;20210;-82
2022/12/03 10:01:19;;;;;;;16.67;8.57;;;3.30;99.90;;;;;;4997353;28;20223;-81
2022/12/03 10:03:49;;;;;;;15.30;7.10;;;3.20;99.90;;;;;;4997118;28;20199;-82
2022/12/03 10:06:21;;;;;;;15.33;8.83;;;3.10;99.90;;;;;;5012756;28;20188;-81
2022/12/03 10:08:51;;;;;;;14.93;7.50;;;3.00;99.90;;;;;;4997126;28;20504;-82
2022/12/03 10:11:20;;;;;;;14.05;8.68;;;3.10;99.90;;;;;;4998197;28;20229;-82
2022/12/03 10:13:46;;;;;;;19.35;9.30;;;3.10;99.90;;;;;;5014777;28;20190;-83
2022/12/03 10:16:14;;;;;;;18.17;9.13;;;3.10;99.90;;;;;;4982504;28;20186;-82
2022/12/03 10:18:44;;;;;;;16.25;8.88;;;3.10;99.90;;;;;;5012875;28;20204;-81
2022/12/03 10:21:19;;;;;;;15.00;8.73;;;3.10;99.90;;;;;;4997136;28;20207;-80
2022/12/03 10:23:46;;;;;;;16.08;8.02;;;3.10;99.90;;;;;;4996875;28;20430;-81
2022/12/03 10:26:12;;;;;;;16.50;10.30;;;3.20;99.90;;;;;;5014832;28;20659;-82
2022/12/03 10:28:40;;;;;;;19.50;8.63;;;3.20;99.90;;;;;;5018260;28;20223;-83
2022/12/03 10:31:10;;;;;;;16.77;9.48;;;3.20;99.90;;;;;;5001210;28;20195;-82
2022/12/03 10:33:39;;;;;;;16.80;8.27;;;3.30;99.90;;;;;;5016739;28;20238;-82
2022/12/03 10:36:23;;;;;;;17.42;9.65;;;3.20;99.90;;;;;;5016653;28;20184;-83
2022/12/03 10:39:15;;;;;;;15.65;9.32;;;3.20;99.90;;;;;;5016777;28;20246;-81
2022/12/03 10:41:43;;;;;;;16.10;9.35;;;3.30;99.90;;;;;;5012542;28;20216;-82
2022/12/03 10:44:18;;;;;;;18.33;9.40;;;3.30;99.90;;;;;;5031602;28;20180;-82
2022/12/03 10:46:45;;;;;;;13.13;7.40;;;3.30;99.90;;;;;;5033305;28;20427;-82
2022/12/03 10:49:18;;;;;;;16.08;8.10;;;3.20;99.90;;;;;;5034854;28;20495;-81
2022/12/03 10:51:47;;;;;;;14.02;8.45;;;3.10;99.90;;;;;;5032449;28;20284;-83
2022/12/03 10:54:19;;;;;;;14.73;8.23;;;3.10;99.90;;;;;;5017119;28;20199;-81
2022/12/03 10:56:46;;;;;;;18.65;9.20;;;2.90;99.90;;;;;;5015249;28;20176;-78
2022/12/03 10:59:16;;;;;;;16.40;9.00;;;3.10;99.90;;;;;;5011314;28;20179;-80
2022/12/03 11:01:42;;;;;;;17.13;8.20;;;3.40;99.90;;;;;;5013053;28;20231;-80
2022/12/03 11:04:21;;;;;;;16.47;7.80;;;3.20;99.90;;;;;;5014126;28;21221;-80
2022/12/03 11:06:47;;;;;;;14.75;7.78;;;3.10;99.90;;;;;;5012047;28;20309;-79
2022/12/03 11:09:18;;;;;;;14.65;7.93;;;2.90;99.90;;;;;;5013459;28;20269;-79
2022/12/03 11:11:44;;;;;;;15.15;8.75;;;2.90;99.90;;;;;;5011621;28;20214;-79
2022/12/03 11:14:10;;;;;;;15.33;7.70;;;2.80;99.90;;;;;;5016266;28;20182;-78
2022/12/03 11:16:38;;;;;;;14.60;7.87;;;2.70;99.90;;;;;;4983603;28;20190;-79
2022/12/03 11:19:17;;;;;;;13.30;7.93;;;2.80;99.90;;;;;;5016147;28;20438;-79
2022/12/03 11:22:04;;;;;;;14.38;7.30;;;2.90;99.90;;;;;;5014892;28;20211;-79
2022/12/03 11:24:32;;;;;;;19.00;8.67;;;2.80;99.90;;;;;;5015152;28;20181;-79
2022/12/03 11:26:57;;;;;;;20.38;9.52;;;2.80;99.90;;;;;;5014323;28;21049;-79
2022/12/03 11:29:45;;;;;;;17.57;8.43;;;2.80;99.90;;;;;;5013948;28;20206;-79
2022/12/03 11:32:30;;;;;;;14.57;8.07;;;2.70;99.90;;;;;;5012400;28;20240;-79
2022/12/03 11:34:56;;;;;;;18.70;8.77;;;2.60;99.90;;;;;;5013964;28;20464;-79
2022/12/03 11:37:23;;;;;;;18.73;8.17;;;2.70;99.90;;;;;;4996173;28;20189;-79
2022/12/03 11:39:54;;;;;;;17.95;9.07;;;2.90;99.90;;;;;;5013143;28;20279;-79
2022/12/03 11:42:25;;;;;;;25.63;11.47;;;3.00;99.90;;;;;;5013986;28;20209;-79
2022/12/03 11:45:03;;;;;;;39.90;15.48;;;3.10;99.90;;;;;;5010947;28;20435;-79
2022/12/03 11:47:35;;;;;;;40.42;18.77;;;3.20;99.90;;;;;;5012698;28;20220;-78
2022/12/03 11:50:11;;;;;;;25.98;10.55;;;3.20;99.90;;;;;;5013163;28;20183;-78
2022/12/03 11:52:43;;;;;;;19.83;8.52;;;3.30;99.90;;;;;;5014141;28;20762;-79
2022/12/03 11:55:18;;;;;;;103.72;42.08;;;3.30;99.90;;;;;;5014256;28;20202;-79
2022/12/03 11:57:44;;;;;;;21.08;11.02;;;3.30;99.90;;;;;;5014572;28;20278;-78
2022/12/03 12:00:16;;;;;;;18.48;9.27;;;3.30;99.90;;;;;;4995080;28;20608;-78
2022/12/03 12:02:42;;;;;;;19.83;10.98;;;3.40;99.90;;;;;;5010593;28;20209;-78
2022/12/03 12:05:19;;;;;;;18.45;10.70;;;3.40;99.90;;;;;;5010677;28;20193;-78
2022/12/03 12:07:46;;;;;;;23.13;12.40;;;3.40;99.90;;;;;;5011887;28;20243;-78
2022/12/03 12:10:14;;;;;;;14.75;8.65;;;3.40;99.90;;;;;;5010452;28;20426;-78
2022/12/03 12:12:43;;;;;;;17.77;9.70;;;3.40;99.90;;;;;;4993557;28;20215;-78
2022/12/03 12:15:42;;;;;;;22.03;8.13;;;3.40;99.90;;;;;;5009395;28;20195;-78
2022/12/03 12:18:33;;;;;;;22.30;10.75;;;3.40;99.90;;;;;;5010966;28;20449;-78
2022/12/03 12:21:36;;;;;;;17.70;10.90;;;3.40;99.90;;;;;;5011127;28;20230;-78
2022/12/03 12:24:26;;;;;;;15.38;9.45;;;3.50;99.90;;;;;;5011179;28;21064;-77
2022/12/03 12:26:53;;;;;;;18.47;9.53;;;3.50;99.90;;;;;;5009599;28;20205;-78
2022/12/03 12:29:18;;;;;;;21.00;11.33;;;3.50;99.90;;;;;;5009139;28;20424;-78
2022/12/03 12:31:44;;;;;;;21.00;10.30;;;3.60;99.90;;;;;;5008919;28;20819;-77
2022/12/03 12:34:13;;;;;;;18.60;10.27;;;3.60;99.90;;;;;;4992385;28;20261;-78
2022/12/03 12:36:38;;;;;;;15.07;8.67;;;3.60;99.90;;;;;;5008680;28;20595;-77
2022/12/03 12:39:14;;;;;;;20.00;9.53;;;3.60;99.90;;;;;;5008645;28;20439;-78
2022/12/03 12:41:49;;;;;;;30.50;11.63;;;3.60;99.90;;;;;;5008422;28;20204;-78
2022/12/03 12:44:14;;;;;;;36.75;14.73;;;3.60;99.90;;;;;;5008141;28;20426;-77
2022/12/03 12:46:46;;;;;;;22.70;11.60;;;3.60;99.90;;;;;;4975346;28;20196;-77
2022/12/03 12:49:19;;;;;;;18.73;9.77;;;3.60;99.90;;;;;;5007866;28;20226;-77
2022/12/03 12:51:46;;;;;;;70.97;34.23;;;3.60;99.90;;;;;;4991735;28;20497;-77
2022/12/03 12:54:15;;;;;;;27.27;15.60;;;3.60;99.90;;;;;;5008751;28;20839;-78
2022/12/03 12:56:43;;;;;;;21.03;11.80;;;3.40;99.90;;;;;;5011012;28;20419;-79
2022/12/03 12:59:13;;;;;;;21.13;12.53;;;3.40;99.90;;;;;;5011281;28;20418;-78
2022/12/03 13:01:40;;;;;;;21.13;10.88;;;3.50;99.90;;;;;;5011071;28;20446;-78
2022/12/03 13:04:12;;;;;;;19.17;9.98;;;3.40;99.90;;;;;;5011684;28;20182;-78